Time;durP1;ratioP1;P1;durP2;ratioP2;P2;SDS_P1;SDS_P2;PMS_P1;PMS_P2;Temp;Humidity;BMP_temperature;BMP_pressure;BME280_temperature;BME280_humidity;BME280_pressure;Samples;Min_cycle;Max_cycle;Signal;HPM_P1;HPM_P2
2024/04/16 05:01:02;;;;;;;4.60;1.00;;;5.50;96.60;;;;;;4903643;22;20033;-82
2024/04/16 05:03:04;;;;;;;2.72;0.75;;;5.60;96.20;;;;;;4342650;27;20015;-83
2024/04/16 05:05:08;;;;;;;3.33;0.70;;;5.60;96.40;;;;;;4341993;27;20086;-81
2024/04/16 05:07:09;;;;;;;5.20;0.90;;;5.50;96.30;;;;;;4342686;27;20441;-83
2024/04/16 05:09:13;;;;;;;4.55;0.90;;;5.60;96.30;;;;;;4341778;27;20039;-82
2024/04/16 05:11:14;;;;;;;2.97;0.88;;;5.60;96.30;;;;;;4343319;27;20452;-83
2024/04/16 05:13:17;;;;;;;3.22;1.00;;;5.60;96.10;;;;;;4342985;27;20003;-82
2024/04/16 05:15:19;;;;;;;6.15;1.48;;;5.60;96.00;;;;;;4342308;27;20368;-82
2024/04/16 05:17:25;;;;;;;5.63;1.00;;;5.60;95.90;;;;;;4343160;27;20014;-83
2024/04/16 05:19:26;;;;;;;4.72;1.00;;;5.70;95.70;;;;;;4342849;27;20006;-83
2024/04/16 05:21:30;;;;;;;3.17;0.93;;;5.70;95.70;;;;;;4342253;27;20317;-83
2024/04/16 05:23:31;;;;;;;3.95;1.20;;;5.70;95.90;;;;;;4343067;27;20003;-83
2024/04/16 05:25:35;;;;;;;4.25;0.93;;;5.80;95.80;;;;;;4342803;27;20047;-84
2024/04/16 05:27:36;;;;;;;4.72;0.90;;;5.80;95.60;;;;;;4342162;27;20000;-84
2024/04/16 05:29:39;;;;;;;4.78;1.00;;;5.80;95.60;;;;;;4342124;27;20011;-82
2024/04/16 05:31:40;;;;;;;5.28;1.10;;;5.80;95.60;;;;;;4341992;27;20003;-83
2024/04/16 05:33:46;;;;;;;5.63;1.40;;;5.70;95.60;;;;;;4342039;27;20003;-83
2024/04/16 05:35:47;;;;;;;3.35;1.00;;;5.70;95.70;;;;;;4341899;27;19999;-82
2024/04/16 05:37:51;;;;;;;6.40;1.30;;;5.80;95.90;;;;;;4342037;27;20003;-83
2024/04/16 05:39:52;;;;;;;7.85;1.58;;;5.80;96.00;;;;;;4342399;27;20003;-83
2024/04/16 05:41:55;;;;;;;8.15;1.17;;;5.80;96.00;;;;;;4342224;27;20014;-82
2024/04/16 05:43:56;;;;;;;6.43;1.02;;;5.90;95.90;;;;;;4344344;27;20011;-83
2024/04/16 05:46:00;;;;;;;8.23;1.40;;;5.90;95.80;;;;;;4343325;27;20007;-83
2024/04/16 05:48:01;;;;;;;6.97;1.25;;;5.90;95.70;;;;;;4342606;27;20425;-83
2024/04/16 05:50:08;;;;;;;4.95;1.20;;;5.90;95.80;;;;;;4342497;27;20095;-83
2024/04/16 05:52:09;;;;;;;5.53;1.20;;;6.00;95.80;;;;;;4342148;27;20007;-82
2024/04/16 05:54:12;;;;;;;6.20;1.30;;;6.00;95.70;;;;;;4341623;27;20026;-83
2024/04/16 05:56:13;;;;;;;7.72;1.40;;;6.00;95.80;;;;;;4342124;27;20013;-82
2024/04/16 05:58:18;;;;;;;4.25;1.25;;;6.00;95.60;;;;;;4341932;27;20003;-83
2024/04/16 06:00:19;;;;;;;6.38;1.25;;;6.10;95.50;;;;;;4341952;27;20014;-84
2024/04/16 06:02:22;;;;;;;6.53;1.42;;;6.10;95.40;;;;;;4341660;27;20079;-82
2024/04/16 06:04:23;;;;;;;6.75;1.50;;;6.10;95.40;;;;;;4342002;27;20014;-83
2024/04/16 06:06:30;;;;;;;5.50;1.42;;;6.20;95.00;;;;;;4341700;27;20015;-83
2024/04/16 06:08:31;;;;;;;5.40;1.27;;;6.20;95.10;;;;;;4341316;27;20003;-84
2024/04/16 06:10:34;;;;;;;8.30;1.73;;;6.20;94.90;;;;;;4341848;27;20022;-84
2024/04/16 06:12:35;;;;;;;6.95;1.30;;;6.30;94.80;;;;;;4341855;27;20003;-84
2024/04/16 06:14:39;;;;;;;4.47;1.40;;;6.30;94.90;;;;;;4341774;27;20376;-84
2024/04/16 06:16:40;;;;;;;6.57;1.35;;;6.40;94.70;;;;;;4341561;27;20011;-81
2024/04/16 06:18:43;;;;;;;7.32;1.48;;;6.40;93.90;;;;;;4341298;27;20003;-83
2024/04/16 06:20:44;;;;;;;6.63;1.48;;;6.50;94.30;;;;;;4341728;27;20007;-83
2024/04/16 06:22:51;;;;;;;4.85;1.40;;;6.50;94.30;;;;;;4341370;27;20013;-83
2024/04/16 06:24:52;;;;;;;7.32;1.40;;;6.50;93.80;;;;;;4341434;27;20003;-84
2024/04/16 06:26:56;;;;;;;7.03;1.13;;;6.60;93.40;;;;;;4341648;27;20353;-82
2024/04/16 06:28:57;;;;;;;5.78;1.40;;;6.60;93.60;;;;;;4341861;27;20014;-84
2024/04/16 06:31:00;;;;;;;6.55;1.73;;;6.60;93.50;;;;;;4341505;27;20034;-82
2024/04/16 06:33:01;;;;;;;6.68;1.73;;;6.60;93.10;;;;;;4341514;27;20352;-83
2024/04/16 06:35:05;;;;;;;9.25;1.80;;;6.70;93.30;;;;;;4341622;27;20003;-83
2024/04/16 06:37:06;;;;;;;6.43;1.52;;;6.70;93.30;;;;;;4341737;27;20027;-83
2024/04/16 06:39:13;;;;;;;11.85;1.50;;;6.70;93.20;;;;;;4341457;27;20093;-84
2024/04/16 06:41:14;;;;;;;9.25;1.35;;;6.70;93.30;;;;;;4339484;27;20007;-82
2024/04/16 06:43:18;;;;;;;5.00;1.42;;;6.70;92.90;;;;;;4340884;27;20003;-85
2024/04/16 06:45:19;;;;;;;7.30;1.50;;;6.70;93.00;;;;;;4341525;27;20007;-84
2024/04/16 06:47:22;;;;;;;5.88;1.52;;;6.60;92.90;;;;;;4341292;27;20025;-83
2024/04/16 06:49:23;;;;;;;7.35;1.55;;;6.70;92.90;;;;;;4341918;27;20003;-83
2024/04/16 06:51:27;;;;;;;6.15;1.90;;;6.70;93.00;;;;;;4341106;27;20007;-82
2024/04/16 06:53:28;;;;;;;6.78;1.55;;;6.70;93.20;;;;;;4341497;27;19999;-82
2024/04/16 06:55:34;;;;;;;8.32;2.15;;;6.70;92.80;;;;;;4342590;27;20003;-83
2024/04/16 06:57:35;;;;;;;8.10;1.55;;;6.70;92.50;;;;;;4341910;27;20003;-83
2024/04/16 06:59:39;;;;;;;8.70;1.60;;;6.80;92.80;;;;;;4341321;27;20017;-82
2024/04/16 07:01:40;;;;;;;7.50;1.65;;;6.80;92.50;;;;;;4340952;27;20015;-82
2024/04/16 07:03:43;;;;;;;7.60;1.40;;;6.90;92.30;;;;;;4341685;27;20017;-83
2024/04/16 07:05:44;;;;;;;9.10;1.38;;;6.90;92.00;;;;;;4341668;27;20345;-86
2024/04/16 07:07:48;;;;;;;11.95;1.63;;;6.90;92.10;;;;;;4341356;27;20034;-83
2024/04/16 07:09:49;;;;;;;6.13;1.30;;;6.80;92.20;;;;;;4341554;27;20433;-83
2024/04/16 07:11:55;;;;;;;12.10;1.70;;;6.90;92.30;;;;;;4341372;27;20008;-84
2024/04/16 07:13:56;;;;;;;6.28;1.25;;;6.90;91.50;;;;;;4339911;27;20480;-83
2024/04/16 07:16:00;;;;;;;9.18;1.40;;;6.90;91.10;;;;;;4341382;27;20011;-83
2024/04/16 07:18:02;;;;;;;8.38;1.13;;;7.00;91.00;;;;;;4343406;27;20010;-80
2024/04/16 07:20:08;;;;;;;7.35;1.40;;;7.00;90.40;;;;;;4342597;27;20044;-83
2024/04/16 07:22:09;;;;;;;;;;;7.10;90.40;;;;;;4332960;27;20348;-83
2024/04/16 07:24:13;;;;;;;6.72;1.65;;;7.20;90.30;;;;;;4338694;27;19928;-80
2024/04/16 07:26:14;;;;;;;10.80;1.70;;;7.30;89.50;;;;;;4339464;27;20014;-85
2024/04/16 07:28:20;;;;;;;7.22;1.52;;;7.30;89.70;;;;;;4338744;27;20042;-85
2024/04/16 07:30:21;;;;;;;6.35;1.73;;;7.40;88.90;;;;;;4338837;27;20366;-84
2024/04/16 07:32:25;;;;;;;5.55;1.42;;;7.30;88.90;;;;;;4338799;27;20038;-84
2024/04/16 07:34:26;;;;;;;6.45;1.50;;;7.40;86.70;;;;;;4339459;27;20057;-83
2024/04/16 07:36:31;;;;;;;4.97;1.35;;;7.40;86.60;;;;;;4341060;27;20003;-83
2024/04/16 07:38:32;;;;;;;6.55;1.20;;;7.40;85.60;;;;;;4341087;27;20066;-82
2024/04/16 07:40:36;;;;;;;5.18;1.20;;;7.40;85.30;;;;;;4345101;27;20015;-81
2024/04/16 07:42:38;;;;;;;6.85;1.63;;;7.40;84.70;;;;;;4345243;27;20007;-82
2024/04/16 07:44:44;;;;;;;5.28;1.33;;;7.30;82.10;;;;;;4339775;27;20395;-82
2024/04/16 07:46:46;;;;;;;6.13;1.58;;;7.30;82.00;;;;;;4339287;27;20003;-84
2024/04/16 07:48:50;;;;;;;6.25;1.33;;;7.40;81.10;;;;;;4339020;27;20026;-84
2024/04/16 07:50:51;;;;;;;6.18;1.23;;;7.50;81.90;;;;;;4338653;27;20344;-84
2024/04/16 07:53:00;;;;;;;4.70;1.30;;;7.50;81.40;;;;;;4341228;27;20007;-82
2024/04/16 07:55:01;;;;;;;8.40;1.50;;;7.60;81.50;;;;;;4338752;27;19999;-84
2024/04/16 07:57:05;;;;;;;7.57;1.30;;;7.60;80.70;;;;;;4338830;27;20021;-85
2024/04/16 07:59:06;;;;;;;5.65;1.30;;;7.70;80.60;;;;;;4339773;27;20540;-82
2024/04/16 08:01:14;;;;;;;7.25;1.30;;;7.70;78.10;;;;;;4339890;27;20007;-85
2024/04/16 08:03:15;;;;;;;5.53;1.30;;;7.70;78.60;;;;;;4339076;27;20009;-84
2024/04/16 08:05:19;;;;;;;7.07;1.35;;;7.70;79.20;;;;;;4338632;27;20360;-87
2024/04/16 08:07:19;;;;;;;8.93;1.40;;;7.60;77.20;;;;;;4340652;27;20010;-85
2024/04/16 08:09:23;;;;;;;4.97;1.20;;;7.60;76.10;;;;;;4339905;27;20437;-85
2024/04/16 08:11:24;;;;;;;4.97;1.58;;;7.60;75.20;;;;;;4339813;27;20003;-86
2024/04/16 08:13:32;;;;;;;6.10;1.30;;;7.70;76.70;;;;;;4346937;27;20007;-82
2024/04/16 08:15:33;;;;;;;7.85;1.15;;;7.80;77.30;;;;;;4346407;27;20034;-86
2024/04/16 08:17:39;;;;;;;4.55;1.17;;;7.90;76.10;;;;;;4341051;27;20457;-84
2024/04/16 08:19:40;;;;;;;7.00;1.35;;;7.90;75.50;;;;;;4342620;27;20330;-84
2024/04/16 08:21:44;;;;;;;7.47;1.20;;;7.90;75.60;;;;;;4342234;27;20019;-84
2024/04/16 08:23:45;;;;;;;5.45;1.00;;;7.90;74.70;;;;;;4341081;27;20003;-85
2024/04/16 08:25:46;;;;;;;10.15;1.80;;;8.00;75.90;;;;;;4342475;27;20081;-84
2024/04/16 08:27:49;;;;;;;4.55;0.95;;;8.00;75.80;;;;;;4341933;27;20474;-85
2024/04/16 08:29:51;;;;;;;4.57;1.00;;;8.10;75.70;;;;;;4342386;27;20341;-86
2024/04/16 08:31:58;;;;;;;6.35;1.20;;;8.20;73.40;;;;;;4344144;27;20043;-85
2024/04/16 08:34:04;;;;;;;5.05;1.30;;;8.20;73.70;;;;;;4344541;27;20018;-86
2024/04/16 08:36:10;;;;;;;6.80;1.50;;;8.30;72.80;;;;;;4341803;27;20006;-86
2024/04/16 08:38:14;;;;;;;4.38;1.20;;;8.40;73.70;;;;;;4341531;27;20019;-86
2024/04/16 08:40:21;;;;;;;5.07;1.30;;;8.40;74.60;;;;;;4340557;27;20111;-86
2024/04/16 08:42:22;;;;;;;7.03;1.30;;;8.40;73.90;;;;;;4346380;27;20058;-87
2024/04/16 08:44:30;;;;;;;6.70;1.10;;;8.40;73.20;;;;;;4340929;27;20007;-86
2024/04/16 08:46:32;;;;;;;4.95;0.90;;;8.40;73.90;;;;;;4338927;27;20023;-85
2024/04/16 08:48:39;;;;;;;5.50;1.42;;;8.40;72.30;;;;;;4340075;27;20018;-86
2024/04/16 08:50:45;;;;;;;5.43;1.20;;;8.40;72.70;;;;;;4340316;27;20558;-86
2024/04/16 08:52:49;;;;;;;8.82;1.13;;;8.60;73.60;;;;;;4340688;27;20003;-86
2024/04/16 08:54:53;;;;;;;8.05;1.60;;;8.60;70.50;;;;;;4340817;27;20022;-86
2024/04/16 08:56:59;;;;;;;7.28;1.20;;;8.50;70.40;;;;;;4342133;27;20043;-84
2024/04/16 08:59:01;;;;;;;5.78;1.30;;;8.40;70.80;;;;;;4342172;27;20718;-86
2024/04/16 09:01:08;;;;;;;5.32;1.25;;;8.40;71.20;;;;;;4342294;27;20013;-85
2024/04/16 09:03:09;;;;;;;5.28;1.15;;;8.60;72.30;;;;;;4340806;27;20013;-85
2024/04/16 09:05:13;;;;;;;5.57;1.23;;;8.60;71.80;;;;;;4339644;27;20025;-83
2024/04/16 09:07:18;;;;;;;7.28;1.10;;;8.70;71.10;;;;;;4339500;27;20003;-86
2024/04/16 09:09:21;;;;;;;7.40;1.20;;;8.60;71.10;;;;;;4340434;27;20003;-85
2024/04/16 09:11:22;;;;;;;7.20;1.13;;;8.70;71.80;;;;;;4340576;27;20326;-85
2024/04/16 09:13:26;;;;;;;6.40;1.30;;;8.70;71.50;;;;;;4339536;27;20507;-82
2024/04/16 09:15:30;;;;;;;6.47;1.10;;;8.80;71.90;;;;;;4339392;27;20342;-85
2024/04/16 09:17:33;;;;;;;6.28;1.30;;;8.80;71.30;;;;;;4340002;27;20006;-85
2024/04/16 09:19:36;;;;;;;8.90;1.70;;;8.80;70.60;;;;;;4340586;27;20014;-84
2024/04/16 09:21:39;;;;;;;6.15;0.98;;;8.80;71.10;;;;;;4341207;27;20011;-86
2024/04/16 09:23:54;;;;;;;5.10;1.20;;;8.80;71.30;;;;;;4341086;27;20003;-85
2024/04/16 09:25:59;;;;;;;6.90;1.75;;;8.90;71.40;;;;;;4340826;27;20433;-83
2024/04/16 09:28:00;;;;;;;6.20;1.13;;;9.00;70.30;;;;;;4340574;27;20015;-85
2024/04/16 09:30:09;;;;;;;4.95;1.15;;;9.20;70.90;;;;;;4340494;27;20011;-84
2024/04/16 09:32:10;;;;;;;6.15;1.20;;;9.30;69.60;;;;;;4341011;27;20417;-84
2024/04/16 09:34:14;;;;;;;5.88;1.17;;;9.40;69.40;;;;;;4339823;27;20018;-84
2024/04/16 09:36:16;;;;;;;5.88;0.90;;;9.40;69.50;;;;;;4340023;27;20007;-85
2024/04/16 09:38:19;;;;;;;3.47;0.82;;;9.40;69.10;;;;;;4338134;27;20007;-83
2024/04/16 09:40:25;;;;;;;4.35;1.02;;;9.30;68.90;;;;;;4340072;27;20026;-83
2024/04/16 09:42:30;;;;;;;6.18;1.15;;;9.40;69.40;;;;;;4340312;27;20007;-84
2024/04/16 09:44:32;;;;;;;5.63;1.20;;;9.40;69.30;;;;;;4342077;27;20011;-85
2024/04/16 09:46:37;;;;;;;4.05;0.93;;;9.50;67.50;;;;;;4344400;27;20015;-87
2024/04/16 09:48:39;;;;;;;5.05;0.80;;;9.50;66.70;;;;;;4342769;27;20003;-85
2024/04/16 09:50:42;;;;;;;4.20;1.10;;;9.40;66.60;;;;;;4342839;27;20093;-83
2024/04/16 09:52:44;;;;;;;4.18;1.20;;;9.40;67.10;;;;;;4342824;27;20010;-84
2024/04/16 09:54:48;;;;;;;6.15;0.90;;;9.30;66.90;;;;;;4342996;27;20007;-80
2024/04/16 09:56:53;;;;;;;3.40;1.02;;;9.40;68.00;;;;;;4341987;27;20441;-83
2024/04/16 09:59:01;;;;;;;5.40;1.13;;;9.40;68.00;;;;;;4342564;27;20007;-83
2024/04/16 10:01:03;;;;;;;2.97;0.93;;;9.40;68.70;;;;;;4339534;27;20086;-83
2024/04/16 10:03:10;;;;;;;4.22;1.10;;;9.30;68.10;;;;;;4342770;27;20044;-83
2024/04/16 10:05:12;;;;;;;6.70;1.20;;;9.30;69.20;;;;;;4343254;27;20027;-82
2024/04/16 10:07:16;;;;;;;4.05;0.80;;;9.30;69.20;;;;;;4340390;27;20019;-83
2024/04/16 10:09:19;;;;;;;3.67;0.90;;;9.30;68.80;;;;;;4340467;27;20022;-82
2024/04/16 10:11:24;;;;;;;4.43;0.90;;;9.40;69.50;;;;;;4342304;27;20019;-83
2024/04/16 10:13:28;;;;;;;7.07;1.00;;;9.20;69.00;;;;;;4342257;27;20089;-81
2024/04/16 10:15:31;;;;;;;4.65;1.17;;;9.20;69.80;;;;;;4341682;27;20011;-82
2024/04/16 10:17:34;;;;;;;4.72;1.20;;;9.20;69.90;;;;;;4341870;27;20007;-82
2024/04/16 10:19:37;;;;;;;6.25;1.00;;;9.20;70.30;;;;;;4341681;27;20429;-83
2024/04/16 10:21:39;;;;;;;5.43;1.23;;;9.40;70.50;;;;;;4341056;27;20022;-82
2024/04/16 10:23:43;;;;;;;4.85;0.88;;;9.40;70.50;;;;;;4341729;27;20018;-82
2024/04/16 10:25:49;;;;;;;4.93;1.23;;;9.50;70.90;;;;;;4341211;27;20046;-82
2024/04/16 10:27:53;;;;;;;4.50;1.33;;;9.50;70.50;;;;;;4341791;27;20344;-82
2024/04/16 10:30:10;;;;;;;3.90;1.10;;;9.50;70.20;;;;;;4342124;27;20026;-82
2024/04/16 10:32:14;;;;;;;4.97;1.17;;;9.50;69.70;;;;;;4341105;27;20007;-82
2024/04/16 10:34:19;;;;;;;3.85;0.93;;;9.50;69.60;;;;;;4341752;27;20341;-81
2024/04/16 10:36:24;;;;;;;4.83;1.20;;;9.50;70.70;;;;;;4341479;27;20007;-82
2024/04/16 10:38:25;;;;;;;3.42;0.95;;;9.30;69.50;;;;;;4338528;27;20014;-83
2024/04/16 10:40:30;;;;;;;5.88;1.10;;;9.40;70.60;;;;;;4341413;27;20011;-82
2024/04/16 10:42:36;;;;;;;5.63;1.10;;;9.50;70.20;;;;;;4341308;27;20007;-83
2024/04/16 10:44:40;;;;;;;4.35;1.02;;;9.50;70.20;;;;;;4340609;27;20011;-82
2024/04/16 10:46:45;;;;;;;5.00;0.75;;;9.40;70.80;;;;;;4339219;27;20011;-83
2024/04/16 10:48:49;;;;;;;4.88;0.90;;;9.50;70.40;;;;;;4340872;27;20007;-82
2024/04/16 10:50:50;;;;;;;5.55;1.00;;;9.40;70.40;;;;;;4340950;27;20372;-82
2024/04/16 10:52:54;;;;;;;3.40;0.73;;;9.40;70.40;;;;;;4341344;27;20768;-82
2024/04/16 10:54:56;;;;;;;4.28;1.05;;;9.40;71.00;;;;;;4340092;27;20018;-84
2024/04/16 10:57:00;;;;;;;5.68;1.30;;;9.60;70.80;;;;;;4341055;27;20015;-82
2024/04/16 10:59:06;;;;;;;5.05;1.17;;;9.70;69.90;;;;;;4340859;27;20022;-83
2024/04/16 11:01:11;;;;;;;3.97;0.82;;;9.60;69.30;;;;;;4341173;27;20003;-82
2024/04/16 11:03:15;;;;;;;4.05;0.80;;;9.60;70.20;;;;;;4340818;27;20007;-82
2024/04/16 11:05:23;;;;;;;5.68;0.98;;;9.80;70.60;;;;;;4340007;27;20007;-82
2024/04/16 11:07:24;;;;;;;3.90;0.80;;;9.90;70.00;;;;;;4341079;27;20007;-82
2024/04/16 11:09:27;;;;;;;5.25;0.90;;;10.00;69.80;;;;;;4340545;27;20345;-82
2024/04/16 11:11:29;;;;;;;3.45;0.70;;;10.00;69.20;;;;;;4341360;27;20031;-82
2024/04/16 11:13:33;;;;;;;3.97;0.75;;;10.20;70.20;;;;;;4340070;27;20341;-83
2024/04/16 11:15:35;;;;;;;4.95;1.02;;;10.20;69.80;;;;;;4340610;27;20007;-82
2024/04/16 11:17:38;;;;;;;5.90;0.90;;;10.20;68.90;;;;;;4340471;27;20007;-82
2024/04/16 11:19:42;;;;;;;3.95;0.80;;;10.30;68.70;;;;;;4340091;27;20333;-80
2024/04/16 11:21:48;;;;;;;4.18;0.80;;;10.20;68.40;;;;;;4340056;27;20011;-82
2024/04/16 11:23:49;;;;;;;4.35;0.75;;;10.20;67.80;;;;;;4340180;27;20407;-81
2024/04/16 11:25:53;;;;;;;2.85;0.65;;;10.20;68.30;;;;;;4340326;27;20019;-82
2024/04/16 11:27:55;;;;;;;5.53;0.80;;;10.20;67.60;;;;;;4340689;27;20011;-82
2024/04/16 11:29:59;;;;;;;3.88;0.80;;;10.20;68.00;;;;;;4340784;27;20346;-83
2024/04/16 11:32:00;;;;;;;3.92;0.80;;;10.30;68.60;;;;;;4340500;27;20022;-81
2024/04/16 11:34:03;;;;;;;4.50;0.80;;;10.40;68.60;;;;;;4340260;27;20011;-81
2024/04/16 11:36:08;;;;;;;5.35;1.08;;;10.30;69.20;;;;;;4340670;27;20030;-82
2024/04/16 11:38:12;;;;;;;3.08;0.90;;;10.40;70.40;;;;;;4340401;27;20467;-82
2024/04/16 11:40:13;;;;;;;4.43;0.88;;;10.30;69.70;;;;;;4337589;27;20011;-84
2024/04/16 11:42:16;;;;;;;3.03;0.80;;;10.20;70.50;;;;;;4342643;27;20011;-83
2024/04/16 11:44:17;;;;;;;3.17;0.95;;;10.00;71.70;;;;;;4340286;27;20463;-84
2024/04/16 11:46:21;;;;;;;4.10;0.77;;;10.00;72.20;;;;;;4340902;27;20007;-84
2024/04/16 11:48:23;;;;;;;5.32;0.80;;;10.00;72.70;;;;;;4340412;27;20007;-84
2024/04/16 11:50:28;;;;;;;5.75;0.90;;;9.90;72.50;;;;;;4340720;27;20003;-85
2024/04/16 11:52:32;;;;;;;4.57;0.80;;;9.90;77.30;;;;;;4341266;27;20009;-85
2024/04/16 11:54:36;;;;;;;3.35;0.80;;;9.80;76.90;;;;;;4341220;27;20010;-82
2024/04/16 11:56:37;;;;;;;6.50;1.10;;;9.70;76.30;;;;;;4341093;27;20023;-83
2024/04/16 11:58:41;;;;;;;4.95;0.88;;;9.80;75.80;;;;;;4340866;27;20025;-84
2024/04/16 12:00:42;;;;;;;4.07;1.10;;;9.80;74.40;;;;;;4340632;27;20349;-82
2024/04/16 12:02:46;;;;;;;2.95;0.85;;;9.90;74.60;;;;;;4342284;27;20007;-83
2024/04/16 12:04:46;;;;;;;3.13;0.50;;;10.00;74.70;;;;;;4340018;27;20011;-82
2024/04/16 12:06:50;;;;;;;3.88;0.80;;;9.90;72.90;;;;;;4339119;27;20026;-84
2024/04/16 12:08:54;;;;;;;1.92;0.60;;;9.90;73.00;;;;;;4340952;27;20007;-82
2024/04/16 12:10:57;;;;;;;3.88;0.98;;;10.00;74.10;;;;;;4340451;27;20035;-83
2024/04/16 12:12:58;;;;;;;4.80;0.73;;;10.00;74.00;;;;;;4340306;27;20007;-81
2024/04/16 12:15:02;;;;;;;2.60;0.60;;;9.90;73.50;;;;;;4340569;27;20014;-83
2024/04/16 12:17:03;;;;;;;2.65;0.60;;;9.90;73.90;;;;;;4340238;27;20448;-82
2024/04/16 12:19:07;;;;;;;5.43;0.80;;;9.90;73.70;;;;;;4340121;27;20011;-82
2024/04/16 12:21:08;;;;;;;4.07;0.70;;;9.80;73.00;;;;;;4340140;27;20429;-83
2024/04/16 12:23:11;;;;;;;2.83;0.80;;;9.80;73.10;;;;;;4340350;27;20011;-82
2024/04/16 12:25:15;;;;;;;3.22;0.60;;;9.90;73.20;;;;;;4339677;27;20007;-82
2024/04/16 12:27:20;;;;;;;3.55;0.68;;;10.00;71.40;;;;;;4312769;27;20048;-82
2024/04/16 12:29:21;;;;;;;3.08;0.57;;;10.00;72.30;;;;;;4326550;27;20007;-82
2024/04/16 12:31:24;;;;;;;3.58;0.70;;;10.10;72.00;;;;;;4338108;27;20062;-83
2024/04/16 12:33:25;;;;;;;5.03;0.73;;;10.10;70.70;;;;;;4337598;27;20018;-83
2024/04/16 12:35:29;;;;;;;2.28;0.60;;;10.20;70.60;;;;;;4340657;27;20042;-83
2024/04/16 12:37:30;;;;;;;2.55;0.50;;;10.00;70.80;;;;;;4340236;27;20022;-85
2024/04/16 12:39:34;;;;;;;3.83;0.85;;;10.10;72.20;;;;;;4337570;27;20011;-84
2024/04/16 12:41:37;;;;;;;3.53;0.90;;;10.30;72.30;;;;;;4339671;27;20007;-86
2024/04/16 12:43:41;;;;;;;3.92;0.80;;;10.30;73.20;;;;;;4339588;27;20015;-84
2024/04/16 12:45:42;;;;;;;4.05;0.95;;;10.30;73.90;;;;;;4339887;27;20477;-83
2024/04/16 12:47:45;;;;;;;2.97;0.75;;;10.30;74.60;;;;;;4340177;27;20009;-84
2024/04/16 12:49:46;;;;;;;2.25;0.73;;;10.30;75.80;;;;;;4339792;27;20040;-84
2024/04/16 12:51:50;;;;;;;3.47;0.73;;;10.30;75.40;;;;;;4339417;27;20011;-81
2024/04/16 12:53:51;;;;;;;2.60;0.75;;;10.30;76.00;;;;;;4338524;27;20701;-81
2024/04/16 12:55:54;;;;;;;3.80;0.85;;;10.30;76.30;;;;;;4338706;27;20007;-79
2024/04/16 12:57:58;;;;;;;4.82;0.80;;;10.60;77.10;;;;;;4337622;27;20014;-79
2024/04/16 12:59:59;;;;;;;2.70;0.70;;;10.30;77.20;;;;;;4338749;27;20115;-82
2024/04/16 13:02:03;;;;;;;3.28;0.90;;;10.40;78.00;;;;;;4338241;27;20018;-81
2024/04/16 13:04:04;;;;;;;2.72;0.70;;;10.50;77.10;;;;;;4339070;27;20088;-81
2024/04/16 13:06:08;;;;;;;1.65;0.43;;;10.70;75.70;;;;;;4339284;27;20007;-82
2024/04/16 13:08:09;;;;;;;4.00;0.80;;;10.80;75.30;;;;;;4339456;27;20449;-81
2024/04/16 13:10:12;;;;;;;2.80;0.57;;;10.90;75.30;;;;;;4338725;27;20444;-81
2024/04/16 13:12:14;;;;;;;1.98;0.65;;;10.90;74.50;;;;;;4339205;27;20027;-81
2024/04/16 13:14:20;;;;;;;3.20;0.60;;;11.00;73.00;;;;;;4338991;27;20035;-82
2024/04/16 13:16:21;;;;;;;1.95;0.50;;;11.00;72.00;;;;;;4339344;27;20007;-82
2024/04/16 13:18:24;;;;;;;2.60;0.65;;;11.00;72.10;;;;;;4341835;27;20021;-82
2024/04/16 13:20:27;;;;;;;2.78;0.57;;;11.10;72.40;;;;;;4341335;27;20019;-81
2024/04/16 13:22:31;;;;;;;3.90;0.93;;;11.20;70.90;;;;;;4341604;27;20026;-81
2024/04/16 13:24:32;;;;;;;2.60;0.63;;;11.40;70.20;;;;;;4314179;27;20012;-81
2024/04/16 13:26:35;;;;;;;3.00;0.60;;;11.50;69.80;;;;;;4339341;27;20015;-82
2024/04/16 13:28:36;;;;;;;3.45;0.70;;;11.40;68.70;;;;;;4341230;27;20018;-81
2024/04/16 13:30:43;;;;;;;2.03;0.50;;;11.10;68.90;;;;;;4341092;27;20038;-82
2024/04/16 13:32:44;;;;;;;2.25;0.70;;;10.90;68.50;;;;;;4341442;27;20334;-82
2024/04/16 13:34:47;;;;;;;2.92;0.60;;;11.00;68.60;;;;;;4341063;27;20014;-82
2024/04/16 13:36:48;;;;;;;3.75;0.60;;;11.20;68.00;;;;;;4313654;27;20007;-81
2024/04/16 13:38:52;;;;;;;3.85;0.80;;;11.50;67.60;;;;;;4326346;27;20014;-81
2024/04/16 13:40:53;;;;;;;3.53;0.90;;;11.70;67.30;;;;;;4340728;27;20006;-81
2024/04/16 13:42:53;;;;;;;3.75;0.60;;;12.00;67.30;;;;;;4340971;27;20018;-83
2024/04/16 13:44:57;;;;;;;2.63;0.80;;;12.00;66.40;;;;;;4340748;27;20084;-81
2024/04/16 13:47:01;;;;;;;2.40;0.60;;;12.00;67.40;;;;;;4339874;27;20007;-81
2024/04/16 13:49:04;;;;;;;4.28;0.90;;;12.20;66.50;;;;;;4339687;27;20006;-81
2024/04/16 13:51:05;;;;;;;3.60;0.88;;;12.70;66.20;;;;;;4339428;27;20011;-81
2024/04/16 13:53:09;;;;;;;3.08;0.68;;;12.50;65.10;;;;;;4339897;27;20035;-81
2024/04/16 13:55:10;;;;;;;2.38;0.65;;;12.30;64.70;;;;;;4339657;27;20022;-81
2024/04/16 13:57:14;;;;;;;3.65;0.93;;;12.10;66.10;;;;;;4340350;27;20011;-81
2024/04/16 13:59:15;;;;;;;2.53;0.70;;;12.00;67.50;;;;;;4340867;27;20003;-80
2024/04/16 14:01:19;;;;;;;2.22;0.60;;;12.30;67.80;;;;;;4340430;27;20014;-81
2024/04/16 14:03:22;;;;;;;2.30;0.75;;;12.70;66.50;;;;;;4341028;27;20011;-81
2024/04/16 14:05:26;;;;;;;2.10;0.50;;;13.20;65.80;;;;;;4341597;27;20015;-82
2024/04/16 14:07:28;;;;;;;2.63;0.50;;;13.30;65.20;;;;;;4340192;27;20365;-80
2024/04/16 14:09:31;;;;;;;1.83;0.60;;;13.00;64.00;;;;;;4338139;27;20003;-79
2024/04/16 14:11:32;;;;;;;2.78;0.70;;;12.90;64.20;;;;;;4336755;27;20011;-80
2024/04/16 14:13:36;;;;;;;2.55;0.70;;;12.70;63.90;;;;;;4341717;27;20026;-86
2024/04/16 14:15:37;;;;;;;2.85;0.75;;;13.00;63.40;;;;;;4336777;27;20007;-81
2024/04/16 14:17:42;;;;;;;2.90;0.77;;;13.20;63.40;;;;;;4335256;27;20011;-80
2024/04/16 14:19:46;;;;;;;2.88;0.60;;;13.10;64.10;;;;;;4324585;27;20011;-80
2024/04/16 14:21:49;;;;;;;3.70;1.17;;;13.20;62.70;;;;;;4337544;27;20759;-79
2024/04/16 14:23:51;;;;;;;83.07;78.22;;;13.40;61.70;;;;;;4338457;27;20007;-80
2024/04/16 14:25:54;;;;;;;2.40;0.80;;;13.70;59.00;;;;;;4341020;27;20003;-83
2024/04/16 14:27:55;;;;;;;3.55;2.00;;;13.40;59.50;;;;;;4341355;27;20452;-83
2024/04/16 14:29:59;;;;;;;4.50;0.80;;;14.50;58.60;;;;;;4340721;27;20011;-84
2024/04/16 14:32:00;;;;;;;8.82;7.45;;;14.60;58.30;;;;;;4342388;27;20007;-84
2024/04/16 14:34:04;;;;;;;2.05;0.65;;;14.00;59.40;;;;;;4340689;27;20019;-82
2024/04/16 14:36:08;;;;;;;9.95;9.10;;;13.50;60.40;;;;;;4339566;27;20022;-83
2024/04/16 14:38:11;;;;;;;31.10;29.13;;;13.60;61.50;;;;;;4340675;27;20007;-83
2024/04/16 14:40:12;;;;;;;3.17;0.70;;;13.80;60.40;;;;;;4338139;27;20022;-83
2024/04/16 14:42:16;;;;;;;33.13;28.45;;;13.60;60.30;;;;;;4341131;27;20007;-81
2024/04/16 14:44:17;;;;;;;17.42;15.55;;;13.70;61.10;;;;;;4340187;27;20007;-84
2024/04/16 14:46:20;;;;;;;3.30;0.80;;;14.20;61.00;;;;;;4341616;27;20014;-84
2024/04/16 14:48:21;;;;;;;2.58;0.68;;;14.70;58.60;;;;;;4341400;27;20026;-86
2024/04/16 14:50:25;;;;;;;3.15;0.70;;;14.30;58.10;;;;;;4344426;27;20011;-86
2024/04/16 14:52:29;;;;;;;2.60;0.60;;;14.10;58.60;;;;;;4343961;27;20013;-88
2024/04/16 14:54:32;;;;;;;3.72;0.80;;;13.70;58.60;;;;;;4344205;27;20007;-85
2024/04/16 14:56:33;;;;;;;2.90;0.52;;;13.00;60.60;;;;;;4342449;27;20007;-86
2024/04/16 14:58:38;;;;;;;2.33;0.77;;;12.80;62.30;;;;;;4341983;27;20360;-83
2024/04/16 15:00:40;;;;;;;3.72;0.68;;;12.70;63.00;;;;;;4342076;27;20015;-85
2024/04/16 15:02:43;;;;;;;4.50;3.67;;;12.60;63.60;;;;;;4340164;27;20050;-88
2024/04/16 15:04:44;;;;;;;3.13;0.55;;;13.50;61.40;;;;;;4342539;27;20007;-85
2024/04/16 15:06:48;;;;;;;1.60;0.68;;;13.20;62.40;;;;;;4312420;27;20012;-83
2024/04/16 15:08:57;;;;;;;3.70;3.35;;;14.00;61.10;;;;;;4341044;27;20007;-85
2024/04/16 15:10:58;;;;;;;4.00;0.93;;;14.50;59.20;;;;;;4342212;27;20417;-85
2024/04/16 15:13:06;;;;;;;2.58;0.70;;;14.70;58.50;;;;;;4341218;27;20011;-84
2024/04/16 15:15:08;;;;;;;3.70;0.80;;;14.30;60.30;;;;;;4341143;27;20492;-82
2024/04/16 15:17:11;;;;;;;3.58;1.05;;;13.80;60.80;;;;;;4340845;27;20410;-83
2024/04/16 15:19:12;;;;;;;7.60;6.88;;;13.30;62.20;;;;;;4341286;27;20003;-84
2024/04/16 15:21:16;;;;;;;3.55;0.80;;;13.40;62.30;;;;;;4340432;27;20011;-85
2024/04/16 15:23:17;;;;;;;2.55;0.80;;;13.40;63.00;;;;;;4340818;27;20026;-84
2024/04/16 15:25:23;;;;;;;5.35;0.85;;;13.40;62.60;;;;;;4339461;27;20007;-82
2024/04/16 15:27:24;;;;;;;4.18;0.80;;;13.60;63.30;;;;;;4339875;27;20003;-83
2024/04/16 15:29:27;;;;;;;7.80;3.55;;;13.50;63.20;;;;;;4339625;27;20022;-86
2024/04/16 15:31:28;;;;;;;3.90;0.80;;;13.80;63.70;;;;;;4341252;27;20007;-86
2024/04/16 15:33:29;;;;;;;2.88;0.88;;;13.40;63.30;;;;;;4338377;27;20026;-81
2024/04/16 15:35:50;;;;;;;2.70;0.77;;;13.10;63.10;;;;;;4322238;27;20548;-82
2024/04/16 15:37:50;;;;;;;3.05;0.80;;;13.20;64.20;;;;;;4319573;27;20354;-79
2024/04/16 15:39:54;;;;;;;2.63;0.70;;;13.10;63.50;;;;;;4320104;27;20011;-82
2024/04/16 15:41:58;;;;;;;2.92;0.70;;;13.10;62.90;;;;;;4317836;27;20011;-82
2024/04/16 15:44:02;;;;;;;3.30;0.70;;;13.40;62.50;;;;;;4339194;27;20011;-82
2024/04/16 15:46:03;;;;;;;2.90;0.60;;;13.20;62.60;;;;;;4338430;27;20003;-81